sensor_id;sensor_type;location;lat;lon;timestamp;pressure;altitude;pressure_sealevel;temperature;humidity
6453;BME280;3259;51.080;13.712;2023-04-19T00:01:47;101158.03;;;25.13;43.53
6453;BME280;3259;51.080;13.712;2023-04-19T00:04:37;101147.72;;;25.10;43.78
6453;BME280;3259;51.080;13.712;2023-04-19T00:07:26;101146.50;;;25.12;43.33
6453;BME280;3259;51.080;13.712;2023-04-19T00:10:16;101138.31;;;25.22;43.36
6453;BME280;3259;51.080;13.712;2023-04-19T00:13:05;101140.59;;;25.25;43.24
6453;BME280;3259;51.080;13.712;2023-04-19T00:15:54;101144.28;;;25.24;43.34
6453;BME280;3259;51.080;13.712;2023-04-19T00:18:42;101137.75;;;25.26;43.02
6453;BME280;3259;51.080;13.712;2023-04-19T00:21:33;101140.13;;;25.21;43.34
6453;BME280;3259;51.080;13.712;2023-04-19T00:24:22;101134.91;;;25.28;43.23
6453;BME280;3259;51.080;13.712;2023-04-19T00:27:11;101128.00;;;25.33;42.90
6453;BME280;3259;51.080;13.712;2023-04-19T00:30:00;101123.28;;;25.21;43.25
6453;BME280;3259;51.080;13.712;2023-04-19T00:32:49;101136.31;;;25.16;43.49
6453;BME280;3259;51.080;13.712;2023-04-19T00:35:38;101123.31;;;25.13;43.51
6453;BME280;3259;51.080;13.712;2023-04-19T00:38:29;101129.31;;;25.15;43.46
6453;BME280;3259;51.080;13.712;2023-04-19T00:41:17;101128.13;;;25.17;42.98
6453;BME280;3259;51.080;13.712;2023-04-19T00:44:06;101124.34;;;25.12;43.28
6453;BME280;3259;51.080;13.712;2023-04-19T00:46:55;101127.38;;;25.09;43.60
6453;BME280;3259;51.080;13.712;2023-04-19T00:49:45;101128.53;;;25.06;43.65
6453;BME280;3259;51.080;13.712;2023-04-19T00:52:34;101123.50;;;25.11;43.07
6453;BME280;3259;51.080;13.712;2023-04-19T00:55:24;101110.69;;;25.07;43.35
6453;BME280;3259;51.080;13.712;2023-04-19T00:58:13;101112.38;;;25.08;43.19
6453;BME280;3259;51.080;13.712;2023-04-19T01:01:02;101111.25;;;25.17;43.01
6453;BME280;3259;51.080;13.712;2023-04-19T01:03:52;101110.34;;;25.10;43.10
6453;BME280;3259;51.080;13.712;2023-04-19T01:06:41;101114.66;;;25.11;43.08
6453;BME280;3259;51.080;13.712;2023-04-19T01:09:30;101113.00;;;25.10;43.50
6453;BME280;3259;51.080;13.712;2023-04-19T01:12:20;101107.72;;;25.02;43.71
6453;BME280;3259;51.080;13.712;2023-04-19T01:15:09;101110.22;;;25.03;43.21
6453;BME280;3259;51.080;13.712;2023-04-19T01:17:58;101101.56;;;25.01;43.32
6453;BME280;3259;51.080;13.712;2023-04-19T01:20:47;101103.44;;;24.93;43.49
6453;BME280;3259;51.080;13.712;2023-04-19T01:23:38;101105.47;;;24.91;43.84
6453;BME280;3259;51.080;13.712;2023-04-19T01:26:26;101106.31;;;24.91;43.85
6453;BME280;3259;51.080;13.712;2023-04-19T01:29:15;101110.34;;;24.87;43.67
6453;BME280;3259;51.080;13.712;2023-04-19T01:32:04;101102.53;;;24.86;43.82
6453;BME280;3259;51.080;13.712;2023-04-19T01:34:53;101102.34;;;24.87;43.81
6453;BME280;3259;51.080;13.712;2023-04-19T01:37:42;101107.03;;;24.85;43.69
6453;BME280;3259;51.080;13.712;2023-04-19T01:40:32;101099.66;;;24.87;43.79
6453;BME280;3259;51.080;13.712;2023-04-19T01:43:21;101102.81;;;24.91;43.38
6453;BME280;3259;51.080;13.712;2023-04-19T01:46:09;101106.50;;;24.90;43.60
6453;BME280;3259;51.080;13.712;2023-04-19T01:48:58;101097.84;;;24.88;43.52
6453;BME280;3259;51.080;13.712;2023-04-19T01:51:47;101099.50;;;24.89;43.89
6453;BME280;3259;51.080;13.712;2023-04-19T01:54:35;101093.50;;;24.87;43.80
6453;BME280;3259;51.080;13.712;2023-04-19T01:57:25;101096.81;;;24.89;43.23
6453;BME280;3259;51.080;13.712;2023-04-19T02:00:14;101099.06;;;25.00;43.57
6453;BME280;3259;51.080;13.712;2023-04-19T02:03:04;101093.72;;;25.00;43.15
6453;BME280;3259;51.080;13.712;2023-04-19T02:05:53;101082.22;;;24.99;43.00
6453;BME280;3259;51.080;13.712;2023-04-19T02:08:41;101077.59;;;24.93;43.56
6453;BME280;3259;51.080;13.712;2023-04-19T02:11:30;101075.75;;;24.94;43.22
6453;BME280;3259;51.080;13.712;2023-04-19T02:14:20;101085.19;;;25.04;43.35
6453;BME280;3259;51.080;13.712;2023-04-19T02:17:09;101083.44;;;24.97;43.40
6453;BME280;3259;51.080;13.712;2023-04-19T02:19:58;101088.66;;;24.90;43.33
6453;BME280;3259;51.080;13.712;2023-04-19T02:22:46;101084.13;;;24.91;43.50
6453;BME280;3259;51.080;13.712;2023-04-19T02:25:35;101083.47;;;24.89;43.20
6453;BME280;3259;51.080;13.712;2023-04-19T02:28:24;101082.19;;;24.85;43.47
6453;BME280;3259;51.080;13.712;2023-04-19T02:31:14;101074.19;;;24.85;43.67
6453;BME280;3259;51.080;13.712;2023-04-19T02:34:02;101080.88;;;24.81;43.16
6453;BME280;3259;51.080;13.712;2023-04-19T02:36:51;101078.19;;;24.81;43.54
6453;BME280;3259;51.080;13.712;2023-04-19T02:39:39;101070.84;;;24.83;43.38
6453;BME280;3259;51.080;13.712;2023-04-19T02:42:28;101066.72;;;24.80;43.29
6453;BME280;3259;51.080;13.712;2023-04-19T02:45:17;101071.50;;;24.85;43.43
6453;BME280;3259;51.080;13.712;2023-04-19T02:48:07;101069.84;;;24.84;43.42
6453;BME280;3259;51.080;13.712;2023-04-19T02:50:56;101071.44;;;24.93;43.31
6453;BME280;3259;51.080;13.712;2023-04-19T02:53:44;101070.63;;;25.07;42.78
6453;BME280;3259;51.080;13.712;2023-04-19T02:56:33;101070.72;;;24.99;43.21
6453;BME280;3259;51.080;13.712;2023-04-19T02:59:22;101065.59;;;25.12;42.76
6453;BME280;3259;51.080;13.712;2023-04-19T03:02:10;101066.66;;;25.03;43.19
6453;BME280;3259;51.080;13.712;2023-04-19T03:05:00;101062.19;;;25.03;42.75
6453;BME280;3259;51.080;13.712;2023-04-19T03:07:49;101061.06;;;25.12;42.79
6453;BME280;3259;51.080;13.712;2023-04-19T03:10:38;101059.69;;;25.02;42.66
6453;BME280;3259;51.080;13.712;2023-04-19T03:13:27;101059.69;;;25.02;42.83
6453;BME280;3259;51.080;13.712;2023-04-19T03:16:16;101047.25;;;24.94;42.99
6453;BME280;3259;51.080;13.712;2023-04-19T03:19:04;101054.72;;;24.99;43.16
6453;BME280;3259;51.080;13.712;2023-04-19T03:21:54;101048.63;;;25.05;42.69
6453;BME280;3259;51.080;13.712;2023-04-19T03:24:43;101047.34;;;25.01;42.83
6453;BME280;3259;51.080;13.712;2023-04-19T03:27:33;101044.03;;;24.99;42.80
6453;BME280;3259;51.080;13.712;2023-04-19T03:30:22;101029.66;;;25.00;43.08
6453;BME280;3259;51.080;13.712;2023-04-19T03:33:11;101034.06;;;24.93;43.21
6453;BME280;3259;51.080;13.712;2023-04-19T03:36:00;101030.75;;;24.91;42.88
6453;BME280;3259;51.080;13.712;2023-04-19T03:38:50;101022.47;;;24.86;43.21
6453;BME280;3259;51.080;13.712;2023-04-19T03:41:39;101021.72;;;24.92;43.14
6453;BME280;3259;51.080;13.712;2023-04-19T03:44:30;101029.72;;;24.92;43.25
6453;BME280;3259;51.080;13.712;2023-04-19T03:47:19;101022.81;;;24.83;43.03
6453;BME280;3259;51.080;13.712;2023-04-19T03:50:08;101016.19;;;24.79;43.28
6453;BME280;3259;51.080;13.712;2023-04-19T03:52:57;101013.34;;;24.80;43.11
6453;BME280;3259;51.080;13.712;2023-04-19T03:55:47;101012.50;;;24.80;43.47
6453;BME280;3259;51.080;13.712;2023-04-19T03:58:36;101012.13;;;24.83;42.94
6453;BME280;3259;51.080;13.712;2023-04-19T04:01:28;101018.31;;;24.83;42.93
6453;BME280;3259;51.080;13.712;2023-04-19T04:04:16;101026.16;;;24.85;43.46
6453;BME280;3259;51.080;13.712;2023-04-19T04:07:05;101025.78;;;24.88;43.08
6453;BME280;3259;51.080;13.712;2023-04-19T04:09:54;101016.59;;;24.90;43.05
6453;BME280;3259;51.080;13.712;2023-04-19T04:12:44;101021.09;;;24.90;43.11
6453;BME280;3259;51.080;13.712;2023-04-19T04:15:33;101020.91;;;24.91;42.97
6453;BME280;3259;51.080;13.712;2023-04-19T04:18:21;101037.84;;;24.98;43.24
6453;BME280;3259;51.080;13.712;2023-04-19T04:21:12;101024.81;;;25.03;42.81
6453;BME280;3259;51.080;13.712;2023-04-19T04:24:01;101030.47;;;25.00;43.35
6453;BME280;3259;51.080;13.712;2023-04-19T04:26:50;101039.16;;;25.02;42.77
6453;BME280;3259;51.080;13.712;2023-04-19T04:29:40;101032.16;;;25.01;43.13
6453;BME280;3259;51.080;13.712;2023-04-19T04:32:32;101034.38;;;24.98;43.12
6453;BME280;3259;51.080;13.712;2023-04-19T04:35:22;101028.69;;;25.15;42.55
6453;BME280;3259;51.080;13.712;2023-04-19T04:38:10;101030.84;;;25.20;42.26
6453;BME280;3259;51.080;13.712;2023-04-19T04:41:10;101020.25;;;25.26;42.28
6453;BME280;3259;51.080;13.712;2023-04-19T04:43:59;101025.50;;;25.20;42.75
6453;BME280;3259;51.080;13.712;2023-04-19T04:47:00;101028.72;;;25.30;42.79
6453;BME280;3259;51.080;13.712;2023-04-19T04:49:49;101030.94;;;25.26;43.05
6453;BME280;3259;51.080;13.712;2023-04-19T04:52:38;101024.03;;;25.32;41.88
6453;BME280;3259;51.080;13.712;2023-04-19T04:55:27;101025.78;;;25.25;41.58
6453;BME280;3259;51.080;13.712;2023-04-19T04:58:16;101026.66;;;25.17;41.23
6453;BME280;3259;51.080;13.712;2023-04-19T05:01:06;101019.66;;;25.16;41.00
6453;BME280;3259;51.080;13.712;2023-04-19T05:03:56;101017.63;;;25.18;40.46
6453;BME280;3259;51.080;13.712;2023-04-19T05:06:45;101018.44;;;25.19;40.17
6453;BME280;3259;51.080;13.712;2023-04-19T05:09:33;101021.88;;;25.13;39.62
6453;BME280;3259;51.080;13.712;2023-04-19T05:12:22;101014.56;;;25.07;39.63
6453;BME280;3259;51.080;13.712;2023-04-19T05:15:11;101026.19;;;25.14;38.92
6453;BME280;3259;51.080;13.712;2023-04-19T05:17:59;101024.06;;;25.09;38.54
6453;BME280;3259;51.080;13.712;2023-04-19T05:20:49;101027.81;;;25.00;39.05
6453;BME280;3259;51.080;13.712;2023-04-19T05:23:38;101030.59;;;25.07;38.50
6453;BME280;3259;51.080;13.712;2023-04-19T05:26:30;101032.63;;;25.05;39.06
6453;BME280;3259;51.080;13.712;2023-04-19T05:29:18;101032.97;;;25.02;39.71
6453;BME280;3259;51.080;13.712;2023-04-19T05:32:07;101036.47;;;24.88;40.00
6453;BME280;3259;51.080;13.712;2023-04-19T05:34:56;101031.13;;;24.88;40.06
6453;BME280;3259;51.080;13.712;2023-04-19T05:37:46;101024.78;;;24.89;40.29
6453;BME280;3259;51.080;13.712;2023-04-19T05:40:34;101021.16;;;24.82;40.34
6453;BME280;3259;51.080;13.712;2023-04-19T05:43:23;101025.31;;;24.84;40.60
6453;BME280;3259;51.080;13.712;2023-04-19T05:46:12;101018.19;;;24.77;40.72
6453;BME280;3259;51.080;13.712;2023-04-19T05:49:01;101025.19;;;24.78;40.79
6453;BME280;3259;51.080;13.712;2023-04-19T05:51:50;101023.53;;;24.77;40.89
6453;BME280;3259;51.080;13.712;2023-04-19T05:54:41;101021.25;;;24.88;40.59
6453;BME280;3259;51.080;13.712;2023-04-19T05:57:30;101028.72;;;24.93;40.26
6453;BME280;3259;51.080;13.712;2023-04-19T06:00:19;101026.25;;;24.91;40.53
6453;BME280;3259;51.080;13.712;2023-04-19T06:03:08;101023.38;;;24.93;40.76
6453;BME280;3259;51.080;13.712;2023-04-19T06:05:58;101028.72;;;24.93;41.42
6453;BME280;3259;51.080;13.712;2023-04-19T06:08:46;101024.34;;;25.00;41.11
6453;BME280;3259;51.080;13.712;2023-04-19T06:11:37;101030.63;;;24.84;41.55
6453;BME280;3259;51.080;13.712;2023-04-19T06:14:36;101034.16;;;24.85;41.35
6453;BME280;3259;51.080;13.712;2023-04-19T06:17:25;101032.56;;;24.76;41.68
6453;BME280;3259;51.080;13.712;2023-04-19T06:20:14;101025.72;;;24.73;41.76
6453;BME280;3259;51.080;13.712;2023-04-19T06:23:03;101022.16;;;24.81;41.68
6453;BME280;3259;51.080;13.712;2023-04-19T06:25:52;101018.41;;;24.90;41.25
6453;BME280;3259;51.080;13.712;2023-04-19T06:28:43;101010.69;;;24.95;40.99
6453;BME280;3259;51.080;13.712;2023-04-19T06:31:32;101011.63;;;25.02;41.01
6453;BME280;3259;51.080;13.712;2023-04-19T06:34:21;101020.00;;;24.99;41.49
6453;BME280;3259;51.080;13.712;2023-04-19T06:37:13;101028.13;;;25.05;40.84
6453;BME280;3259;51.080;13.712;2023-04-19T06:40:02;101021.59;;;25.08;41.09
6453;BME280;3259;51.080;13.712;2023-04-19T06:42:54;101036.50;;;25.17;40.95
6453;BME280;3259;51.080;13.712;2023-04-19T06:45:47;101025.81;;;25.17;40.88
6453;BME280;3259;51.080;13.712;2023-04-19T06:48:37;101027.25;;;25.27;41.17
6453;BME280;3259;51.080;13.712;2023-04-19T06:51:26;101018.13;;;25.80;40.48
6453;BME280;3259;51.080;13.712;2023-04-19T06:54:15;101022.81;;;25.77;40.20
6453;BME280;3259;51.080;13.712;2023-04-19T06:57:04;101020.34;;;25.91;40.06
6453;BME280;3259;51.080;13.712;2023-04-19T06:59:54;101008.16;;;26.02;39.62
6453;BME280;3259;51.080;13.712;2023-04-19T07:02:45;101004.72;;;26.08;39.58
6453;BME280;3259;51.080;13.712;2023-04-19T07:05:35;100993.09;;;26.01;40.01
6453;BME280;3259;51.080;13.712;2023-04-19T07:08:39;100985.66;;;25.83;40.04
6453;BME280;3259;51.080;13.712;2023-04-19T07:11:36;100989.59;;;25.37;40.48
6453;BME280;3259;51.080;13.712;2023-04-19T07:14:25;100986.75;;;25.24;40.97
6453;BME280;3259;51.080;13.712;2023-04-19T07:17:14;100989.19;;;25.11;41.29
6453;BME280;3259;51.080;13.712;2023-04-19T07:20:06;100986.22;;;25.06;41.09
6453;BME280;3259;51.080;13.712;2023-04-19T07:22:55;100980.78;;;24.99;41.45
6453;BME280;3259;51.080;13.712;2023-04-19T07:25:44;100968.91;;;25.02;41.05
6453;BME280;3259;51.080;13.712;2023-04-19T07:28:33;100976.94;;;25.02;41.15
6453;BME280;3259;51.080;13.712;2023-04-19T07:31:22;100982.81;;;24.97;41.38
6453;BME280;3259;51.080;13.712;2023-04-19T07:34:11;100975.34;;;24.93;41.40
6453;BME280;3259;51.080;13.712;2023-04-19T07:37:02;100966.69;;;24.91;41.38
6453;BME280;3259;51.080;13.712;2023-04-19T07:39:50;100976.34;;;24.92;41.10
6453;BME280;3259;51.080;13.712;2023-04-19T07:42:39;100965.41;;;24.87;41.42
6453;BME280;3259;51.080;13.712;2023-04-19T07:45:29;100967.88;;;24.88;40.96
6453;BME280;3259;51.080;13.712;2023-04-19T07:48:17;100964.56;;;24.86;41.55
6453;BME280;3259;51.080;13.712;2023-04-19T07:51:09;100970.38;;;24.90;41.31
6453;BME280;3259;51.080;13.712;2023-04-19T07:54:00;100966.69;;;24.91;41.09
6453;BME280;3259;51.080;13.712;2023-04-19T07:56:49;100965.31;;;24.95;40.68
6453;BME280;3259;51.080;13.712;2023-04-19T07:59:38;100966.69;;;24.91;41.06
6453;BME280;3259;51.080;13.712;2023-04-19T08:02:27;100966.31;;;24.94;40.84
6453;BME280;3259;51.080;13.712;2023-04-19T08:05:16;100959.69;;;24.90;40.70
6453;BME280;3259;51.080;13.712;2023-04-19T08:08:06;100947.63;;;24.94;40.74
6453;BME280;3259;51.080;13.712;2023-04-19T08:10:56;100953.91;;;25.01;40.78
6453;BME280;3259;51.080;13.712;2023-04-19T08:13:47;100949.97;;;24.97;40.47
6453;BME280;3259;51.080;13.712;2023-04-19T08:16:52;100947.94;;;24.99;40.72
6453;BME280;3259;51.080;13.712;2023-04-19T08:19:46;100952.91;;;25.02;40.28
6453;BME280;3259;51.080;13.712;2023-04-19T08:22:35;100942.78;;;24.97;40.57
6453;BME280;3259;51.080;13.712;2023-04-19T08:25:25;100943.06;;;25.02;40.16
6453;BME280;3259;51.080;13.712;2023-04-19T08:28:17;100929.53;;;25.04;40.25
6453;BME280;3259;51.080;13.712;2023-04-19T08:31:05;100945.84;;;25.09;40.21
6453;BME280;3259;51.080;13.712;2023-04-19T08:33:54;100941.50;;;25.08;40.28
6453;BME280;3259;51.080;13.712;2023-04-19T08:36:44;100937.81;;;25.09;40.31
6453;BME280;3259;51.080;13.712;2023-04-19T08:39:46;100943.25;;;25.15;40.26
6453;BME280;3259;51.080;13.712;2023-04-19T08:42:35;100936.69;;;25.18;39.67
6453;BME280;3259;51.080;13.712;2023-04-19T08:45:26;100931.56;;;25.16;39.52
6453;BME280;3259;51.080;13.712;2023-04-19T08:48:16;100933.38;;;25.16;39.87
6453;BME280;3259;51.080;13.712;2023-04-19T08:51:05;100936.38;;;25.21;39.87
6453;BME280;3259;51.080;13.712;2023-04-19T08:53:55;100925.59;;;25.29;39.36
6453;BME280;3259;51.080;13.712;2023-04-19T08:56:44;100922.09;;;25.28;39.57
6453;BME280;3259;51.080;13.712;2023-04-19T08:59:33;100923.66;;;25.23;39.81
6453;BME280;3259;51.080;13.712;2023-04-19T09:02:23;100919.59;;;25.27;39.56
6453;BME280;3259;51.080;13.712;2023-04-19T09:05:13;100908.75;;;25.28;39.45
6453;BME280;3259;51.080;13.712;2023-04-19T09:08:21;100910.47;;;25.36;39.49
6453;BME280;3259;51.080;13.712;2023-04-19T09:11:10;100905.78;;;25.38;39.51
6453;BME280;3259;51.080;13.712;2023-04-19T09:14:06;100900.44;;;25.38;39.42
6453;BME280;3259;51.080;13.712;2023-04-19T09:17:11;100896.38;;;25.42;39.02
6453;BME280;3259;51.080;13.712;2023-04-19T09:20:04;100896.00;;;25.45;38.90
6453;BME280;3259;51.080;13.712;2023-04-19T09:23:02;100890.84;;;25.43;39.24
6453;BME280;3259;51.080;13.712;2023-04-19T09:25:53;100885.69;;;25.42;39.25
6453;BME280;3259;51.080;13.712;2023-04-19T09:29:04;100887.09;;;25.38;39.56
6453;BME280;3259;51.080;13.712;2023-04-19T09:31:57;100881.09;;;25.36;39.20
6453;BME280;3259;51.080;13.712;2023-04-19T09:34:50;100884.03;;;25.41;39.42
6453;BME280;3259;51.080;13.712;2023-04-19T09:37:41;100873.00;;;25.44;39.19
6453;BME280;3259;51.080;13.712;2023-04-19T09:40:33;100872.78;;;25.45;39.37
6453;BME280;3259;51.080;13.712;2023-04-19T09:43:23;100870.13;;;25.45;39.49
6453;BME280;3259;51.080;13.712;2023-04-19T09:46:33;100869.16;;;25.53;39.23
6453;BME280;3259;51.080;13.712;2023-04-19T09:49:23;100859.03;;;25.48;39.29
6453;BME280;3259;51.080;13.712;2023-04-19T09:52:32;100864.38;;;25.48;39.14
6453;BME280;3259;51.080;13.712;2023-04-19T09:55:23;100854.16;;;25.52;39.33
6453;BME280;3259;51.080;13.712;2023-04-19T09:58:17;100842.66;;;25.51;39.37
6453;BME280;3259;51.080;13.712;2023-04-19T10:01:09;100846.78;;;25.54;39.43
6453;BME280;3259;51.080;13.712;2023-04-19T10:04:03;100852.13;;;25.54;39.12
6453;BME280;3259;51.080;13.712;2023-04-19T10:07:12;100858.31;;;25.54;39.50
6453;BME280;3259;51.080;13.712;2023-04-19T10:10:05;100845.97;;;25.53;39.12
6453;BME280;3259;51.080;13.712;2023-04-19T10:13:10;100839.16;;;25.51;39.25
6453;BME280;3259;51.080;13.712;2023-04-19T10:16:03;100841.66;;;25.52;39.27
6453;BME280;3259;51.080;13.712;2023-04-19T10:19:08;100832.44;;;25.55;39.58
6453;BME280;3259;51.080;13.712;2023-04-19T10:21:57;100836.47;;;25.51;39.31
6453;BME280;3259;51.080;13.712;2023-04-19T10:25:08;100826.56;;;25.45;39.52
6453;BME280;3259;51.080;13.712;2023-04-19T10:27:58;100823.63;;;25.40;39.81
6453;BME280;3259;51.080;13.712;2023-04-19T10:30:58;100832.72;;;25.45;39.83
6453;BME280;3259;51.080;13.712;2023-04-19T10:33:49;100830.59;;;25.41;39.76
6453;BME280;3259;51.080;13.712;2023-04-19T10:36:38;100825.91;;;25.43;40.05
6453;BME280;3259;51.080;13.712;2023-04-19T10:39:41;100828.31;;;25.38;39.73
6453;BME280;3259;51.080;13.712;2023-04-19T10:46:00;100818.66;;;25.37;39.71
6453;BME280;3259;51.080;13.712;2023-04-19T10:48:51;100827.31;;;25.39;39.82
6453;BME280;3259;51.080;13.712;2023-04-19T10:51:48;100807.97;;;25.37;40.11
6453;BME280;3259;51.080;13.712;2023-04-19T10:54:38;100818.03;;;25.35;39.78
6453;BME280;3259;51.080;13.712;2023-04-19T10:57:27;100813.06;;;25.32;40.07
6453;BME280;3259;51.080;13.712;2023-04-19T11:00:17;100817.75;;;25.30;39.99
6453;BME280;3259;51.080;13.712;2023-04-19T11:03:51;100803.84;;;25.34;40.05
6453;BME280;3259;51.080;13.712;2023-04-19T11:06:56;100811.66;;;25.36;39.85
6453;BME280;3259;51.080;13.712;2023-04-19T11:09:47;100804.91;;;25.40;39.74
6453;BME280;3259;51.080;13.712;2023-04-19T11:12:41;100804.34;;;25.44;39.77
6453;BME280;3259;51.080;13.712;2023-04-19T11:15:30;100802.25;;;25.40;39.90
6453;BME280;3259;51.080;13.712;2023-04-19T11:18:19;100798.41;;;25.28;40.14
6453;BME280;3259;51.080;13.712;2023-04-19T11:21:13;100789.38;;;25.29;40.04
6453;BME280;3259;51.080;13.712;2023-04-19T11:24:05;100786.09;;;25.27;40.14
6453;BME280;3259;51.080;13.712;2023-04-19T11:26:55;100783.16;;;25.22;40.18
6453;BME280;3259;51.080;13.712;2023-04-19T11:29:44;100780.19;;;25.17;40.18
6453;BME280;3259;51.080;13.712;2023-04-19T11:32:33;100776.25;;;25.13;40.40
6453;BME280;3259;51.080;13.712;2023-04-19T11:35:24;100771.94;;;25.12;40.69
6453;BME280;3259;51.080;13.712;2023-04-19T11:38:14;100775.63;;;25.11;40.77
6453;BME280;3259;51.080;13.712;2023-04-19T11:41:03;100769.88;;;25.14;40.51
6453;BME280;3259;51.080;13.712;2023-04-19T11:43:52;100773.97;;;25.10;40.33
6453;BME280;3259;51.080;13.712;2023-04-19T11:46:41;100773.56;;;25.13;40.92
6453;BME280;3259;51.080;13.712;2023-04-19T11:49:31;100769.63;;;25.09;40.32
6453;BME280;3259;51.080;13.712;2023-04-19T11:52:21;100780.50;;;25.07;40.54
6453;BME280;3259;51.080;13.712;2023-04-19T11:55:18;100770.38;;;25.03;40.82
6453;BME280;3259;51.080;13.712;2023-04-19T11:58:07;100776.72;;;25.02;40.85
6453;BME280;3259;51.080;13.712;2023-04-19T12:00:57;100776.72;;;25.02;40.71
6453;BME280;3259;51.080;13.712;2023-04-19T12:03:51;100766.06;;;25.02;40.59
6453;BME280;3259;51.080;13.712;2023-04-19T12:06:40;100763.56;;;25.00;40.95
6453;BME280;3259;51.080;13.712;2023-04-19T12:09:31;100768.72;;;25.02;40.56
6453;BME280;3259;51.080;13.712;2023-04-19T12:12:33;100771.22;;;25.03;40.50
6453;BME280;3259;51.080;13.712;2023-04-19T12:15:22;100769.34;;;25.04;40.53
6453;BME280;3259;51.080;13.712;2023-04-19T12:18:14;100761.97;;;25.06;40.73
6453;BME280;3259;51.080;13.712;2023-04-19T12:21:03;100759.97;;;25.08;40.61
6453;BME280;3259;51.080;13.712;2023-04-19T12:23:53;100757.09;;;25.09;40.53
6453;BME280;3259;51.080;13.712;2023-04-19T12:26:52;100757.94;;;25.10;40.59
6453;BME280;3259;51.080;13.712;2023-04-19T12:30:04;100757.56;;;25.13;40.76
6453;BME280;3259;51.080;13.712;2023-04-19T12:32:53;100746.88;;;25.13;40.22
6453;BME280;3259;51.080;13.712;2023-04-19T12:35:42;100752.22;;;25.13;40.45
6453;BME280;3259;51.080;13.712;2023-04-19T12:38:31;100749.56;;;25.13;40.37
6453;BME280;3259;51.080;13.712;2023-04-19T12:41:20;100746.50;;;25.16;40.18
6453;BME280;3259;51.080;13.712;2023-04-19T12:44:08;100732.50;;;25.14;40.46
6453;BME280;3259;51.080;13.712;2023-04-19T12:46:59;100736.13;;;25.21;40.58
6453;BME280;3259;51.080;13.712;2023-04-19T12:49:50;100740.06;;;25.25;40.58
6453;BME280;3259;51.080;13.712;2023-04-19T12:52:39;100730.09;;;25.19;40.03
6453;BME280;3259;51.080;13.712;2023-04-19T12:55:28;100725.78;;;25.18;40.36
6453;BME280;3259;51.080;13.712;2023-04-19T12:58:17;100726.63;;;25.18;40.58
6453;BME280;3259;51.080;13.712;2023-04-19T13:01:07;100728.13;;;25.21;40.34
6453;BME280;3259;51.080;13.712;2023-04-19T13:03:57;100721.94;;;25.20;40.52
6453;BME280;3259;51.080;13.712;2023-04-19T13:06:46;100721.13;;;25.20;40.39
6453;BME280;3259;51.080;13.712;2023-04-19T13:09:35;100723.09;;;25.18;40.35
6453;BME280;3259;51.080;13.712;2023-04-19T13:12:23;100712.41;;;25.18;40.49
6453;BME280;3259;51.080;13.712;2023-04-19T13:15:12;100711.16;;;25.14;40.32
6453;BME280;3259;51.080;13.712;2023-04-19T13:18:01;100689.41;;;25.17;40.34
6453;BME280;3259;51.080;13.712;2023-04-19T13:20:51;100690.53;;;25.22;40.46
6453;BME280;3259;51.080;13.712;2023-04-19T13:23:42;100681.44;;;25.38;40.04
6453;BME280;3259;51.080;13.712;2023-04-19T13:26:31;100673.66;;;25.43;39.17
6453;BME280;3259;51.080;13.712;2023-04-19T13:29:20;100679.00;;;25.43;38.44
6453;BME280;3259;51.080;13.712;2023-04-19T13:32:09;100670.00;;;25.44;38.22
6453;BME280;3259;51.080;13.712;2023-04-19T13:34:59;100667.13;;;25.45;37.26
6453;BME280;3259;51.080;13.712;2023-04-19T13:37:49;100665.06;;;25.47;36.10
6453;BME280;3259;51.080;13.712;2023-04-19T13:40:37;100662.63;;;25.46;35.29
6453;BME280;3259;51.080;13.712;2023-04-19T13:43:26;100660.56;;;25.48;34.37
6453;BME280;3259;51.080;13.712;2023-04-19T13:46:15;100658.47;;;25.43;34.08
6453;BME280;3259;51.080;13.712;2023-04-19T13:49:03;100651.03;;;25.39;33.94
6453;BME280;3259;51.080;13.712;2023-04-19T13:51:52;100653.31;;;25.42;33.97
6453;BME280;3259;51.080;13.712;2023-04-19T13:54:42;100658.03;;;25.40;33.76
6453;BME280;3259;51.080;13.712;2023-04-19T13:57:31;100660.84;;;25.32;33.21
6453;BME280;3259;51.080;13.712;2023-04-19T14:00:20;100687.56;;;25.32;31.61
6453;BME280;3259;51.080;13.712;2023-04-19T14:03:09;100687.84;;;25.22;31.39
6453;BME280;3259;51.080;13.712;2023-04-19T14:05:58;100678.50;;;25.12;31.18
6453;BME280;3259;51.080;13.712;2023-04-19T14:08:46;100681.03;;;24.99;30.58
6453;BME280;3259;51.080;13.712;2023-04-19T14:11:38;100682.47;;;24.80;30.83
6453;BME280;3259;51.080;13.712;2023-04-19T14:14:27;100690.28;;;24.82;30.90
6453;BME280;3259;51.080;13.712;2023-04-19T14:17:18;100697.63;;;24.80;31.10
6453;BME280;3259;51.080;13.712;2023-04-19T14:20:07;100696.13;;;24.56;31.22
6453;BME280;3259;51.080;13.712;2023-04-19T14:22:56;100699.91;;;24.62;31.23
6453;BME280;3259;51.080;13.712;2023-04-19T14:25:46;100699.91;;;24.62;31.57
6453;BME280;3259;51.080;13.712;2023-04-19T14:28:36;100708.00;;;24.54;31.85
6453;BME280;3259;51.080;13.712;2023-04-19T14:31:24;100702.22;;;24.36;32.80
6453;BME280;3259;51.080;13.712;2023-04-19T14:34:13;100703.94;;;24.29;33.32
6453;BME280;3259;51.080;13.712;2023-04-19T14:37:02;100701.38;;;24.21;33.31
6453;BME280;3259;51.080;13.712;2023-04-19T14:39:51;100699.53;;;24.21;34.19
6453;BME280;3259;51.080;13.712;2023-04-19T14:42:40;100703.84;;;24.22;34.10
6453;BME280;3259;51.080;13.712;2023-04-19T14:45:30;100702.66;;;24.25;34.45
6453;BME280;3259;51.080;13.712;2023-04-19T14:48:18;100706.88;;;24.34;34.23
6453;BME280;3259;51.080;13.712;2023-04-19T14:51:08;100704.88;;;24.36;34.54
6453;BME280;3259;51.080;13.712;2023-04-19T14:53:57;100706.16;;;24.40;34.41
6453;BME280;3259;51.080;13.712;2023-04-19T14:56:46;100710.72;;;24.46;34.78
6453;BME280;3259;51.080;13.712;2023-04-19T14:59:34;100718.09;;;24.44;34.86
6453;BME280;3259;51.080;13.712;2023-04-19T15:02:25;100725.38;;;24.50;34.38
6453;BME280;3259;51.080;13.712;2023-04-19T15:05:14;100731.34;;;24.52;34.91
6453;BME280;3259;51.080;13.712;2023-04-19T15:08:03;100721.97;;;24.56;34.70